createdAt,value
2018-03-17T00:00:09.822Z,51.70
2018-03-17T00:01:09.803Z,51.00
2018-03-17T00:02:09.783Z,51.00
2018-03-17T00:03:09.701Z,46.80
2018-03-17T00:04:10.596Z,46.70
2018-03-17T00:05:10.592Z,50.40
2018-03-17T00:06:09.589Z,51.40
2018-03-17T00:07:09.550Z,58.40
2018-03-17T00:08:09.509Z,48.00
2018-03-17T00:09:09.455Z,49.20
2018-03-17T00:10:09.418Z,42.60
2018-03-17T00:11:09.383Z,41.30
2018-03-17T00:12:09.334Z,42.50
2018-03-17T00:13:09.293Z,44.40
2018-03-17T00:14:09.272Z,43.50
2018-03-17T00:15:09.257Z,42.80
2018-03-17T00:16:09.193Z,48.80
2018-03-17T00:17:09.149Z,48.90
2018-03-17T00:18:09.100Z,46.60
2018-03-17T00:19:09.058Z,46.80
2018-03-17T00:20:09.014Z,46.80
2018-03-17T00:21:08.968Z,46.00
2018-03-17T00:22:08.994Z,43.60
2018-03-17T00:23:08.910Z,43.50
2018-03-17T00:24:08.843Z,43.70
2018-03-17T00:25:08.805Z,38.60
2018-03-17T00:26:09.004Z,40.80
2018-03-17T00:27:08.736Z,41.90
2018-03-17T00:28:08.696Z,41.10
2018-03-17T00:29:08.641Z,47.30
2018-03-17T00:30:08.605Z,44.10
2018-03-17T00:31:08.559Z,43.20
2018-03-17T00:32:08.554Z,42.70
2018-03-17T00:33:08.480Z,44.60
2018-03-17T00:34:08.447Z,43.20
2018-03-17T00:35:08.421Z,44.20
2018-03-17T00:36:08.367Z,43.80
2018-03-17T00:37:08.314Z,44.60
2018-03-17T00:38:08.294Z,43.30
2018-03-17T00:39:08.283Z,45.60
2018-03-17T00:40:08.196Z,47.10
2018-03-17T00:41:08.149Z,42.90
2018-03-17T00:42:08.111Z,42.60
2018-03-17T00:43:08.086Z,42.50
2018-03-17T00:44:08.035Z,41.90
2018-03-17T00:45:07.988Z,39.20
2018-03-17T00:46:07.943Z,42.50
2018-03-17T00:47:07.904Z,42.00
2018-03-17T00:48:07.882Z,40.50
2018-03-17T00:49:07.825Z,40.70
2018-03-17T00:50:07.792Z,40.40
2018-03-17T00:51:07.762Z,40.70
2018-03-17T00:52:07.748Z,43.80
2018-03-17T00:53:07.662Z,43.60
2018-03-17T00:54:07.630Z,40.80
2018-03-17T00:55:07.596Z,41.00
2018-03-17T00:56:07.549Z,41.60
2018-03-17T00:57:07.530Z,40.40
2018-03-17T00:58:07.456Z,38.40
2018-03-17T00:59:07.419Z,38.80
2018-03-17T01:00:07.375Z,41.10
2018-03-17T01:01:07.391Z,38.30
2018-03-17T01:02:07.293Z,41.50
2018-03-17T01:03:07.272Z,38.90
2018-03-17T01:04:07.225Z,40.00
2018-03-17T01:05:07.172Z,42.40
2018-03-17T01:06:07.126Z,45.50
2018-03-17T01:07:07.117Z,42.30
2018-03-17T01:08:07.049Z,43.90
2018-03-17T01:09:07.009Z,39.30
2018-03-17T01:10:06.966Z,42.20
2018-03-17T01:11:06.922Z,43.40
2018-03-17T01:12:06.922Z,44.10
2018-03-17T01:13:06.858Z,46.70
2018-03-17T01:14:06.823Z,49.90
2018-03-17T01:15:06.772Z,43.40
2018-03-17T01:16:06.716Z,47.70
2018-03-17T01:17:06.689Z,42.00
2018-03-17T01:18:06.632Z,50.00
2018-03-17T01:19:06.592Z,43.50
2018-03-17T01:20:06.555Z,44.60
2018-03-17T01:21:06.524Z,43.20
2018-03-17T01:22:06.471Z,44.10
2018-03-17T01:23:06.429Z,47.70
2018-03-17T01:24:06.453Z,43.50
2018-03-17T01:25:06.381Z,47.40
2018-03-17T01:26:06.308Z,44.50
2018-03-17T01:27:06.279Z,44.00
2018-03-17T01:28:06.227Z,50.90
2018-03-17T01:29:06.199Z,45.60
2018-03-17T01:30:06.173Z,47.20
2018-03-17T01:31:06.112Z,47.10
2018-03-17T01:32:06.081Z,43.70
2018-03-17T01:33:06.068Z,41.20
2018-03-17T01:34:06.023Z,41.70
2018-03-17T01:35:05.993Z,42.80
2018-03-17T01:36:05.916Z,41.10
2018-03-17T01:37:05.871Z,45.50
2018-03-17T01:38:05.851Z,42.40
2018-03-17T01:39:05.796Z,40.00
2018-03-17T01:40:05.759Z,44.80
2018-03-17T01:41:05.813Z,41.00
2018-03-17T01:42:05.665Z,41.40
2018-03-17T01:43:05.694Z,45.90
2018-03-17T01:44:05.616Z,40.40
2018-03-17T01:45:05.532Z,43.00
2018-03-17T01:46:05.492Z,42.30
2018-03-17T01:47:05.448Z,43.40
2018-03-17T01:48:05.410Z,40.40
2018-03-17T01:49:05.400Z,42.60
2018-03-17T01:50:05.344Z,44.80
2018-03-17T01:51:05.290Z,40.70
2018-03-17T01:52:05.249Z,42.70
2018-03-17T01:53:05.245Z,44.10
2018-03-17T01:54:05.173Z,43.00
2018-03-17T01:55:05.119Z,43.10
2018-03-17T01:56:05.140Z,42.30
2018-03-17T01:57:05.040Z,41.10
2018-03-17T01:58:05.067Z,45.10
2018-03-17T01:59:04.958Z,37.30
2018-03-17T02:00:05.023Z,44.60
2018-03-17T02:01:04.938Z,40.50
2018-03-17T02:02:04.834Z,46.90
2018-03-17T02:03:04.833Z,42.10
2018-03-17T02:04:04.780Z,42.90
2018-03-17T02:05:04.713Z,44.00
2018-03-17T02:06:04.737Z,42.30
2018-03-17T02:07:04.630Z,40.60
2018-03-17T02:08:04.596Z,43.70
2018-03-17T02:09:04.554Z,45.70
2018-03-17T02:10:04.510Z,43.80
2018-03-17T02:11:04.519Z,43.70
2018-03-17T02:12:04.451Z,46.00
2018-03-17T02:13:04.434Z,47.50
2018-03-17T02:14:04.365Z,48.10
2018-03-17T02:15:04.339Z,45.40
2018-03-17T02:16:04.256Z,46.60
2018-03-17T02:17:04.219Z,45.00
2018-03-17T02:18:04.210Z,51.40
2018-03-17T02:19:04.199Z,46.50
2018-03-17T02:20:04.114Z,48.40
2018-03-17T02:21:04.056Z,47.90
2018-03-17T02:22:04.043Z,47.70
2018-03-17T02:23:03.971Z,44.30
2018-03-17T02:24:03.933Z,49.90
2018-03-17T02:25:03.914Z,47.10
2018-03-17T02:26:03.879Z,52.70
2018-03-17T02:27:03.840Z,55.30
2018-03-17T02:28:03.763Z,56.30
2018-03-17T02:29:03.749Z,52.70
2018-03-17T02:30:03.700Z,51.30
2018-03-17T02:31:03.642Z,52.50
2018-03-17T02:32:03.674Z,52.30
2018-03-17T02:33:03.564Z,51.80
2018-03-17T02:34:03.527Z,50.00
2018-03-17T02:35:03.476Z,48.50
2018-03-17T02:36:03.444Z,51.30
2018-03-17T02:37:03.431Z,52.90
2018-03-17T02:38:03.360Z,52.70
2018-03-17T02:39:03.371Z,53.60
2018-03-17T02:40:03.287Z,56.60
2018-03-17T02:41:03.241Z,58.60
2018-03-17T02:42:03.205Z,61.00
2018-03-17T02:43:03.151Z,56.90
2018-03-17T02:44:03.157Z,60.50
2018-03-17T02:45:03.078Z,58.40
2018-03-17T02:46:03.069Z,57.10
2018-03-17T02:47:02.994Z,57.50
2018-03-17T02:48:02.942Z,55.50
2018-03-17T02:49:02.908Z,57.20
2018-03-17T02:50:02.892Z,62.00
2018-03-17T02:51:02.856Z,58.30
2018-03-17T02:52:02.782Z,58.50
2018-03-17T02:53:02.767Z,61.10
2018-03-17T02:54:02.701Z,59.00
2018-03-17T02:55:02.679Z,59.80
2018-03-17T02:56:02.652Z,59.30
2018-03-17T02:57:02.574Z,65.70
2018-03-17T02:58:02.534Z,66.00
2018-03-17T02:59:02.501Z,61.50
2018-03-17T03:00:02.445Z,67.50
2018-03-17T03:01:02.453Z,57.20
2018-03-17T03:02:02.375Z,54.70
2018-03-17T03:03:02.368Z,54.00
2018-03-17T03:04:02.297Z,53.40
2018-03-17T03:05:02.237Z,52.50
2018-03-17T03:06:02.207Z,52.90
2018-03-17T03:07:02.162Z,49.90
2018-03-17T03:08:02.115Z,50.90
2018-03-17T03:09:02.105Z,49.40
2018-03-17T03:10:02.081Z,48.60
2018-03-17T03:11:02.006Z,49.80
2018-03-17T03:12:01.955Z,51.00
2018-03-17T03:13:02.017Z,53.00
2018-03-17T03:14:01.883Z,51.10
2018-03-17T03:15:01.822Z,52.30
2018-03-17T03:16:01.811Z,51.40
2018-03-17T03:17:01.758Z,52.80
2018-03-17T03:18:01.706Z,52.00
2018-03-17T03:19:01.655Z,58.70
2018-03-17T03:20:01.617Z,55.80
2018-03-17T03:21:01.603Z,58.50
2018-03-17T03:22:01.548Z,53.60
2018-03-17T03:23:01.498Z,56.90
2018-03-17T03:24:01.485Z,54.30
2018-03-17T03:25:01.413Z,53.00
2018-03-17T03:26:01.370Z,55.20
2018-03-17T03:27:01.364Z,54.40
2018-03-17T03:28:01.311Z,62.40
2018-03-17T03:29:01.306Z,60.50
2018-03-17T03:30:01.228Z,56.90
2018-03-17T03:31:01.165Z,53.70
2018-03-17T03:32:01.152Z,59.60
2018-03-17T03:33:01.093Z,60.70
2018-03-17T03:34:01.034Z,59.50
2018-03-17T03:35:01.025Z,65.40
2018-03-17T03:36:00.969Z,66.80
2018-03-17T03:37:00.938Z,67.00
2018-03-17T03:38:00.889Z,67.60
2018-03-17T03:39:00.833Z,68.20
2018-03-17T03:40:00.850Z,70.60
2018-03-17T03:41:00.759Z,69.70
2018-03-17T03:42:00.704Z,66.80
2018-03-17T03:43:00.673Z,64.50
2018-03-17T03:44:00.627Z,63.60
2018-03-17T03:45:00.665Z,61.80
2018-03-17T03:46:00.540Z,62.60
2018-03-17T03:47:00.526Z,62.90
2018-03-17T03:48:00.461Z,58.90
2018-03-17T03:49:00.475Z,63.20
2018-03-17T03:50:00.372Z,63.90
2018-03-17T03:51:00.338Z,64.00
2018-03-17T03:52:00.300Z,66.90
2018-03-17T03:53:00.292Z,66.40
2018-03-17T03:54:00.246Z,64.40
2018-03-17T03:55:00.177Z,70.30
2018-03-17T03:56:00.129Z,61.40
2018-03-17T03:57:02.074Z,62.50
2018-03-17T03:58:00.057Z,65.40
2018-03-17T03:59:00.576Z,69.60
2018-03-17T03:59:59.966Z,66.90
2018-03-17T04:00:59.964Z,64.70
2018-03-17T04:01:59.937Z,66.90
2018-03-17T04:02:59.841Z,63.00
2018-03-17T04:03:59.840Z,62.30
2018-03-17T04:04:59.755Z,64.20
2018-03-17T04:05:59.709Z,66.70
2018-03-17T04:06:59.707Z,66.70
2018-03-17T04:07:59.626Z,61.70
2018-03-17T04:08:59.588Z,62.20
2018-03-17T04:09:59.585Z,61.30
2018-03-17T04:10:59.509Z,57.10
2018-03-17T04:11:59.466Z,59.20
2018-03-17T04:12:59.438Z,57.50
2018-03-17T04:13:59.393Z,59.60
2018-03-17T04:14:59.346Z,65.00
2018-03-17T04:15:59.320Z,59.30
2018-03-17T04:16:59.275Z,62.50
2018-03-17T04:17:59.213Z,58.30
2018-03-17T04:18:59.174Z,57.30
2018-03-17T04:19:59.214Z,61.40
2018-03-17T04:20:59.109Z,58.50
2018-03-17T04:21:59.076Z,64.70
2018-03-17T04:22:59.070Z,61.80
2018-03-17T04:23:58.972Z,63.10
2018-03-17T04:24:58.946Z,63.00
2018-03-17T04:25:58.906Z,59.40
2018-03-17T04:26:58.839Z,62.30
2018-03-17T04:27:58.879Z,64.80
2018-03-17T04:28:58.813Z,63.30
2018-03-17T04:29:58.719Z,59.10
2018-03-17T04:30:58.676Z,67.90
2018-03-17T04:31:58.656Z,66.90
2018-03-17T04:32:58.685Z,64.60
2018-03-17T04:33:58.567Z,65.60
2018-03-17T04:34:58.508Z,57.80
2018-03-17T04:35:58.532Z,56.90
2018-03-17T04:36:58.437Z,61.90
2018-03-17T04:37:58.383Z,59.10
2018-03-17T04:38:58.407Z,60.90
2018-03-17T04:39:58.365Z,59.60
2018-03-17T04:40:58.272Z,67.20
2018-03-17T04:41:58.236Z,63.60
2018-03-17T04:42:58.172Z,59.60
2018-03-17T04:43:58.135Z,62.60
2018-03-17T04:44:58.088Z,58.50
2018-03-17T04:45:58.064Z,64.30
2018-03-17T04:46:58.041Z,59.10
2018-03-17T04:47:57.989Z,58.80
2018-03-17T04:48:57.955Z,61.20
2018-03-17T04:49:57.922Z,59.10
2018-03-17T04:50:57.850Z,57.40
2018-03-17T04:51:57.814Z,63.30
2018-03-17T04:52:57.779Z,59.10
2018-03-17T04:53:57.758Z,64.90
2018-03-17T04:54:57.669Z,60.90
2018-03-17T04:55:57.650Z,61.70
2018-03-17T04:56:57.603Z,55.60
2018-03-17T04:57:57.558Z,62.30
2018-03-17T04:58:57.518Z,57.10
2018-03-17T04:59:57.489Z,58.70
2018-03-17T05:00:57.429Z,57.50
2018-03-17T05:01:57.384Z,59.80
2018-03-17T05:02:57.393Z,57.70
2018-03-17T05:03:57.379Z,57.50
2018-03-17T05:04:57.285Z,56.60
2018-03-17T05:05:57.222Z,59.80
2018-03-17T05:06:57.170Z,61.20
2018-03-17T05:07:57.212Z,64.30
2018-03-17T05:08:57.109Z,60.10
2018-03-17T05:09:57.054Z,59.30
2018-03-17T05:10:57.036Z,61.80
2018-03-17T05:11:56.982Z,56.30
2018-03-17T05:12:56.963Z,58.80
2018-03-17T05:13:56.895Z,59.40
2018-03-17T05:14:56.839Z,58.80
2018-03-17T05:15:56.827Z,57.70
2018-03-17T05:16:56.772Z,58.30
2018-03-17T05:17:56.715Z,57.50
2018-03-17T05:18:56.681Z,57.80
2018-03-17T05:19:56.705Z,57.10
2018-03-17T05:20:56.646Z,59.40
2018-03-17T05:21:56.566Z,58.20
2018-03-17T05:22:56.529Z,60.20
2018-03-17T05:23:56.465Z,56.70
2018-03-17T05:24:56.424Z,55.60
2018-03-17T05:25:56.381Z,57.80
2018-03-17T05:26:56.339Z,60.00
2018-03-17T05:27:56.296Z,54.40
2018-03-17T05:28:56.256Z,59.30
2018-03-17T05:29:56.213Z,51.30
2018-03-17T05:30:56.171Z,54.90
2018-03-17T05:31:56.132Z,51.40
2018-03-17T05:32:56.087Z,52.30
2018-03-17T05:33:56.046Z,44.50
2018-03-17T05:34:56.005Z,41.90
2018-03-17T05:35:55.962Z,47.30
2018-03-17T05:36:55.923Z,51.70
2018-03-17T05:37:55.886Z,46.20
2018-03-17T05:38:55.837Z,46.80
2018-03-17T05:39:55.795Z,45.70
2018-03-17T05:40:55.753Z,44.70
2018-03-17T05:41:55.708Z,41.10
2018-03-17T05:42:55.668Z,42.10
2018-03-17T05:43:55.625Z,46.70
2018-03-17T05:44:55.588Z,45.10
2018-03-17T05:45:55.542Z,46.60
2018-03-17T05:46:55.503Z,41.30
2018-03-17T05:47:55.461Z,43.40
2018-03-17T05:48:55.427Z,42.10
2018-03-17T05:49:55.376Z,38.30
2018-03-17T05:50:55.335Z,38.80
2018-03-17T05:51:55.293Z,41.80
2018-03-17T05:52:55.250Z,40.60
2018-03-17T05:53:55.208Z,41.40
2018-03-17T05:54:55.167Z,40.50
2018-03-17T05:55:55.127Z,40.10
2018-03-17T05:56:55.084Z,39.60
2018-03-17T05:57:55.043Z,41.20
2018-03-17T05:58:55.500Z,37.90
2018-03-17T05:59:54.959Z,40.00
2018-03-17T06:00:54.915Z,36.90
2018-03-17T06:01:54.873Z,39.50
2018-03-17T06:02:54.831Z,39.70
2018-03-17T06:03:54.792Z,38.30
2018-03-17T06:04:54.749Z,38.40
2018-03-17T06:05:54.707Z,39.70
2018-03-17T06:06:54.662Z,34.90
2018-03-17T06:07:54.624Z,37.50
2018-03-17T06:08:54.579Z,37.70
2018-03-17T06:09:54.540Z,36.90
2018-03-17T06:10:55.142Z,39.00
2018-03-17T06:11:54.457Z,34.80
2018-03-17T06:12:54.417Z,34.50
2018-03-17T06:13:54.370Z,34.80
2018-03-17T06:14:54.332Z,37.10
2018-03-17T06:15:54.290Z,33.00
2018-03-17T06:16:54.250Z,34.00
2018-03-17T06:17:54.203Z,35.00
2018-03-17T06:18:54.159Z,33.10
2018-03-17T06:19:54.118Z,35.10
2018-03-17T06:20:54.081Z,32.50
2018-03-17T06:21:54.036Z,31.20
2018-03-17T06:22:53.994Z,33.30
2018-03-17T06:23:53.952Z,34.10
2018-03-17T06:24:53.916Z,31.10
2018-03-17T06:25:53.869Z,32.20
2018-03-17T06:26:53.827Z,34.60
2018-03-17T06:27:53.784Z,31.70
2018-03-17T06:28:53.749Z,31.40
2018-03-17T06:29:53.703Z,30.50
2018-03-17T06:30:53.663Z,31.70
2018-03-17T06:31:53.617Z,34.00
2018-03-17T06:32:53.578Z,34.80
2018-03-17T06:33:53.540Z,32.80
2018-03-17T06:34:53.494Z,32.50
2018-03-17T06:35:53.453Z,32.10
2018-03-17T06:36:53.410Z,35.10
2018-03-17T06:37:53.368Z,31.20
2018-03-17T06:38:53.323Z,31.60
2018-03-17T06:39:53.285Z,35.50
2018-03-17T06:40:53.244Z,34.20
2018-03-17T06:41:53.201Z,31.10
2018-03-17T06:42:53.157Z,30.10
2018-03-17T06:43:53.118Z,30.30
2018-03-17T06:44:53.074Z,32.10
2018-03-17T06:45:53.033Z,28.50
2018-03-17T06:46:52.990Z,30.00
2018-03-17T06:47:52.949Z,29.10
2018-03-17T06:48:52.906Z,33.50
2018-03-17T06:49:52.892Z,29.80
2018-03-17T06:50:52.824Z,31.10
2018-03-17T06:51:52.780Z,27.40
2018-03-17T06:52:52.740Z,31.10
2018-03-17T06:53:52.698Z,30.00
2018-03-17T06:54:52.659Z,34.00
2018-03-17T06:55:52.613Z,30.60
2018-03-17T06:56:52.572Z,29.90
2018-03-17T06:57:52.529Z,33.90
2018-03-17T06:58:52.488Z,36.40
2018-03-17T06:59:52.446Z,34.80
2018-03-17T07:00:52.404Z,36.30
2018-03-17T07:01:52.363Z,36.30
2018-03-17T07:02:52.343Z,39.00
2018-03-17T07:03:52.278Z,38.30
2018-03-17T07:04:52.242Z,37.50
2018-03-17T07:05:52.214Z,35.70
2018-03-17T07:06:52.159Z,41.50
2018-03-17T07:07:52.112Z,40.20
2018-03-17T07:08:52.069Z,38.40
2018-03-17T07:09:52.028Z,37.60
2018-03-17T07:10:51.986Z,36.30
2018-03-17T07:11:51.944Z,36.60
2018-03-17T07:12:51.903Z,39.80
2018-03-17T07:13:51.859Z,39.40
2018-03-17T07:14:51.818Z,35.00
2018-03-17T07:15:51.776Z,36.10
2018-03-17T07:16:51.735Z,33.80
2018-03-17T07:17:51.693Z,32.40
2018-03-17T07:18:51.660Z,35.40
2018-03-17T07:19:51.610Z,37.00
2018-03-17T07:20:51.569Z,37.30
2018-03-17T07:21:51.525Z,33.50
2018-03-17T07:22:51.484Z,36.00
2018-03-17T07:23:51.441Z,34.50
2018-03-17T07:24:51.403Z,34.80
2018-03-17T07:25:51.358Z,35.70
2018-03-17T07:26:51.317Z,37.80
2018-03-17T07:27:51.275Z,37.90
2018-03-17T07:28:51.234Z,37.20
2018-03-17T07:29:51.192Z,35.40
2018-03-17T07:30:51.147Z,36.50
2018-03-17T07:31:51.107Z,32.90
2018-03-17T07:32:51.072Z,36.80
2018-03-17T07:33:51.023Z,36.90
2018-03-17T07:34:50.979Z,39.60
2018-03-17T07:35:50.937Z,34.10
2018-03-17T07:36:50.898Z,31.90
2018-03-17T07:37:50.857Z,32.60
2018-03-17T07:38:50.814Z,35.10
2018-03-17T07:39:50.769Z,33.70
2018-03-17T07:40:50.728Z,35.30
2018-03-17T07:41:50.686Z,33.70
2018-03-17T07:42:50.642Z,31.80
2018-03-17T07:43:50.604Z,30.80
2018-03-17T07:44:50.565Z,34.20
2018-03-17T07:45:50.519Z,34.40
2018-03-17T07:46:50.529Z,34.40
2018-03-17T07:47:50.436Z,34.30
2018-03-17T07:48:51.049Z,36.40
2018-03-17T07:49:50.355Z,35.20
2018-03-17T07:50:50.309Z,35.80
2018-03-17T07:51:50.267Z,34.70
2018-03-17T07:52:50.226Z,34.30
2018-03-17T07:53:50.184Z,34.60
2018-03-17T07:54:50.159Z,34.90
2018-03-17T07:55:50.098Z,35.40
2018-03-17T07:56:50.056Z,34.50
2018-03-17T07:57:50.014Z,33.20
2018-03-17T07:58:49.973Z,34.60
2018-03-17T07:59:49.931Z,34.20
2018-03-17T08:00:49.889Z,33.40
2018-03-17T08:01:49.846Z,33.10
2018-03-17T08:02:49.802Z,33.20
2018-03-17T08:03:49.762Z,33.00
2018-03-17T08:04:49.719Z,47.10
2018-03-17T08:05:49.681Z,34.90
2018-03-17T08:06:49.638Z,32.70
2018-03-17T08:07:49.593Z,31.70
2018-03-17T08:08:49.552Z,32.40
2018-03-17T08:09:49.509Z,33.00
2018-03-17T08:10:49.465Z,30.30
2018-03-17T08:11:49.424Z,30.00
2018-03-17T08:12:49.389Z,33.00
2018-03-17T08:13:49.342Z,33.60
2018-03-17T08:14:49.299Z,28.10
2018-03-17T08:15:49.258Z,29.40
2018-03-17T08:16:49.216Z,32.30
2018-03-17T08:17:49.189Z,31.80
2018-03-17T08:18:49.156Z,28.10
2018-03-17T08:19:49.089Z,30.70
2018-03-17T08:20:49.047Z,28.70
2018-03-17T08:21:49.008Z,29.50
2018-03-17T08:22:48.960Z,26.40
2018-03-17T08:23:48.919Z,28.90
2018-03-17T08:24:48.878Z,26.80
2018-03-17T08:25:48.834Z,28.20
2018-03-17T08:26:48.793Z,28.30
2018-03-17T08:27:48.750Z,28.60
2018-03-17T08:28:48.709Z,28.00
2018-03-17T08:29:48.672Z,25.90
2018-03-17T08:30:48.625Z,27.80
2018-03-17T08:31:48.582Z,23.70
2018-03-17T08:32:48.546Z,25.90
2018-03-17T08:33:48.497Z,27.60
2018-03-17T08:34:48.454Z,28.30
2018-03-17T08:35:48.413Z,28.40
2018-03-17T08:36:48.374Z,28.50
2018-03-17T08:37:48.326Z,27.50
2018-03-17T08:38:48.285Z,28.50
2018-03-17T08:39:48.245Z,29.50
2018-03-17T08:40:48.201Z,26.90
2018-03-17T08:41:48.158Z,27.20
2018-03-17T08:42:48.118Z,25.00
2018-03-17T08:43:48.078Z,42.90
2018-03-17T08:44:48.034Z,23.80
2018-03-17T08:45:47.989Z,26.10
2018-03-17T08:46:47.946Z,24.90
2018-03-17T08:47:47.906Z,25.20
2018-03-17T08:48:47.907Z,28.80
2018-03-17T08:49:47.822Z,28.50
2018-03-17T08:50:47.778Z,26.00
2018-03-17T08:51:47.738Z,27.40
2018-03-17T08:52:47.703Z,25.90
2018-03-17T08:53:47.652Z,24.20
2018-03-17T08:54:47.613Z,25.80
2018-03-17T08:55:47.597Z,23.70
2018-03-17T08:56:47.528Z,26.30
2018-03-17T08:57:47.487Z,25.40
2018-03-17T08:58:47.490Z,24.60
2018-03-17T08:59:47.402Z,27.70
2018-03-17T09:00:47.358Z,23.80
2018-03-17T09:01:47.321Z,25.20
2018-03-17T09:02:47.280Z,26.20
2018-03-17T09:03:47.237Z,22.00
2018-03-17T09:04:47.195Z,23.70
2018-03-17T09:05:47.149Z,23.50
2018-03-17T09:06:47.110Z,22.30
2018-03-17T09:07:47.065Z,23.10
2018-03-17T09:08:47.023Z,22.40
2018-03-17T09:09:46.980Z,24.40
2018-03-17T09:10:46.955Z,23.40
2018-03-17T09:11:46.900Z,24.20
2018-03-17T09:12:46.862Z,21.60
2018-03-17T09:13:46.813Z,21.00
2018-03-17T09:14:46.770Z,23.20
2018-03-17T09:15:46.727Z,22.30
2018-03-17T09:16:46.691Z,20.90
2018-03-17T09:17:46.644Z,18.30
2018-03-17T09:18:46.603Z,22.10
2018-03-17T09:19:46.561Z,21.70
2018-03-17T09:20:46.521Z,20.60
2018-03-17T09:21:46.478Z,20.40
2018-03-17T09:22:46.435Z,25.50
2018-03-17T09:23:46.395Z,21.90
2018-03-17T09:24:46.354Z,19.70
2018-03-17T09:25:46.311Z,22.50
2018-03-17T09:26:46.266Z,20.20
2018-03-17T09:27:46.228Z,20.40
2018-03-17T09:28:46.184Z,23.10
2018-03-17T09:29:46.149Z,22.80
2018-03-17T09:30:46.100Z,22.80
2018-03-17T09:31:46.058Z,23.40
2018-03-17T09:32:46.019Z,20.60
2018-03-17T09:33:45.979Z,22.40
2018-03-17T09:34:45.987Z,22.80
2018-03-17T09:35:45.901Z,18.90
2018-03-17T09:36:45.851Z,19.50
2018-03-17T09:37:45.810Z,21.30
2018-03-17T09:38:45.767Z,20.30
2018-03-17T09:39:45.725Z,21.90
2018-03-17T09:40:45.819Z,19.70
2018-03-17T09:41:45.638Z,18.00
2018-03-17T09:42:45.594Z,20.60
2018-03-17T09:43:45.554Z,20.00
2018-03-17T09:44:45.514Z,23.30
2018-03-17T09:45:45.472Z,18.20
2018-03-17T09:46:45.429Z,18.80
2018-03-17T09:47:45.395Z,20.20
2018-03-17T09:48:45.346Z,19.20
2018-03-17T09:49:45.311Z,18.70
2018-03-17T09:50:45.262Z,20.90
2018-03-17T09:51:45.221Z,21.90
2018-03-17T09:52:45.178Z,19.80
2018-03-17T09:53:45.134Z,20.00
2018-03-17T09:54:45.094Z,20.30
2018-03-17T09:55:45.052Z,17.50
2018-03-17T09:56:45.012Z,18.40
2018-03-17T09:57:44.967Z,15.80
2018-03-17T09:58:44.926Z,18.80
2018-03-17T09:59:44.886Z,19.40
2018-03-17T10:00:44.872Z,17.60
2018-03-17T10:01:44.799Z,17.40
2018-03-17T10:02:44.759Z,17.90
2018-03-17T10:03:44.717Z,19.20
2018-03-17T10:04:44.697Z,16.60
2018-03-17T10:05:44.633Z,16.90
2018-03-17T10:06:44.593Z,17.00
2018-03-17T10:07:44.547Z,18.90
2018-03-17T10:08:44.506Z,18.10
2018-03-17T10:09:44.461Z,17.40
2018-03-17T10:10:44.424Z,16.20
2018-03-17T10:11:44.401Z,16.50
2018-03-17T10:12:44.340Z,19.00
2018-03-17T10:13:44.295Z,16.60
2018-03-17T10:14:44.254Z,18.80
2018-03-17T10:15:44.224Z,18.80
2018-03-17T10:16:44.173Z,20.60
2018-03-17T10:17:44.130Z,18.70
2018-03-17T10:18:46.608Z,17.70
2018-03-17T10:19:44.044Z,14.70
2018-03-17T10:20:44.003Z,16.40
2018-03-17T10:21:43.958Z,17.60
2018-03-17T10:22:43.921Z,15.70
2018-03-17T10:23:43.881Z,17.80
2018-03-17T10:24:43.839Z,18.70
2018-03-17T10:25:43.796Z,15.30
2018-03-17T10:26:43.753Z,17.90
2018-03-17T10:27:43.711Z,19.30
2018-03-17T10:28:43.669Z,16.10
2018-03-17T10:29:43.650Z,15.80
2018-03-17T10:30:43.582Z,17.00
2018-03-17T10:31:43.543Z,71.60
2018-03-17T10:32:43.500Z,19.00
2018-03-17T10:33:43.459Z,17.20
2018-03-17T10:34:43.443Z,17.40
2018-03-17T10:35:43.383Z,16.50
2018-03-17T10:36:43.338Z,16.90
2018-03-17T10:37:43.290Z,15.80
2018-03-17T10:38:43.251Z,17.70
2018-03-17T10:39:43.230Z,17.10
2018-03-17T10:40:43.166Z,22.60
2018-03-17T10:41:43.125Z,15.30
2018-03-17T10:42:43.085Z,18.60
2018-03-17T10:43:43.047Z,18.40
2018-03-17T10:44:43.000Z,14.90
2018-03-17T10:45:42.958Z,17.50
2018-03-17T10:46:42.915Z,18.30
2018-03-17T10:47:42.874Z,16.40
2018-03-17T10:48:42.833Z,18.10
2018-03-17T10:49:42.791Z,20.30
2018-03-17T10:50:42.748Z,17.90
2018-03-17T10:51:42.707Z,15.30
2018-03-17T10:52:42.665Z,16.40
2018-03-17T10:53:42.629Z,16.80
2018-03-17T10:54:42.584Z,17.60
2018-03-17T10:55:42.542Z,15.50
2018-03-17T10:56:42.499Z,17.80
2018-03-17T10:57:42.456Z,15.30
2018-03-17T10:58:42.414Z,16.20
2018-03-17T10:59:42.370Z,15.30
2018-03-17T11:00:42.328Z,15.90
2018-03-17T11:01:42.287Z,17.50
2018-03-17T11:02:42.249Z,19.00
2018-03-17T11:03:42.205Z,15.10
2018-03-17T11:04:42.163Z,16.80
2018-03-17T11:05:42.125Z,12.30
2018-03-17T11:06:42.083Z,14.30
2018-03-17T11:07:42.040Z,16.70
2018-03-17T11:08:41.998Z,16.90
2018-03-17T11:09:41.954Z,14.70
2018-03-17T11:10:41.916Z,14.60
2018-03-17T11:11:41.921Z,14.20
2018-03-17T11:12:41.831Z,26.80
2018-03-17T11:13:41.798Z,25.00
2018-03-17T11:14:41.745Z,14.00
2018-03-17T11:15:41.710Z,13.20
2018-03-17T11:16:41.664Z,15.20
2018-03-17T11:17:41.620Z,14.30
2018-03-17T11:18:41.579Z,15.00
2018-03-17T11:19:41.552Z,14.00
2018-03-17T11:20:41.495Z,14.00
2018-03-17T11:21:41.454Z,13.00
2018-03-17T11:22:41.409Z,13.70
2018-03-17T11:23:41.369Z,15.20
2018-03-17T11:24:41.348Z,14.50
2018-03-17T11:25:41.283Z,12.80
2018-03-17T11:26:42.025Z,16.80
2018-03-17T11:27:42.026Z,13.80
2018-03-17T11:28:41.168Z,15.40
2018-03-17T11:29:41.121Z,14.70
2018-03-17T11:30:41.077Z,15.50
2018-03-17T11:31:41.037Z,13.10
2018-03-17T11:32:40.996Z,15.60
2018-03-17T11:33:40.952Z,16.90
2018-03-17T11:34:40.908Z,12.50
2018-03-17T11:35:40.867Z,13.90
2018-03-17T11:36:40.824Z,14.50
2018-03-17T11:37:40.789Z,14.70
2018-03-17T11:38:40.744Z,14.70
2018-03-17T11:39:40.698Z,14.10
2018-03-17T11:40:40.663Z,15.00
2018-03-17T11:41:40.615Z,14.30
2018-03-17T11:42:40.580Z,16.60
2018-03-17T11:43:40.539Z,14.70
2018-03-17T11:44:40.496Z,16.10
2018-03-17T11:45:40.449Z,14.40
2018-03-17T11:46:40.411Z,13.40
2018-03-17T11:47:40.387Z,14.40
2018-03-17T11:48:40.328Z,14.90
2018-03-17T11:49:40.284Z,12.30
2018-03-17T11:50:40.240Z,13.50
2018-03-17T11:51:40.200Z,16.70
2018-03-17T11:52:40.158Z,14.30
2018-03-17T11:53:40.512Z,12.60
2018-03-17T11:54:40.076Z,15.50
2018-03-17T11:55:40.030Z,14.60
2018-03-17T11:56:39.992Z,15.10
2018-03-17T11:57:39.951Z,13.00
2018-03-17T11:58:39.905Z,14.80
2018-03-17T11:59:39.865Z,15.80
2018-03-17T12:00:39.824Z,14.80
2018-03-17T12:01:39.782Z,14.20
2018-03-17T12:02:39.741Z,15.40
2018-03-17T12:03:39.699Z,13.50
2018-03-17T12:04:39.660Z,17.90
2018-03-17T12:05:39.616Z,20.20
2018-03-17T12:06:39.572Z,15.60
2018-03-17T12:07:39.531Z,15.30
2018-03-17T12:08:39.507Z,15.20
2018-03-17T12:09:39.449Z,15.30
2018-03-17T12:10:39.404Z,15.20
2018-03-17T12:11:39.366Z,13.90
2018-03-17T12:12:39.322Z,13.60
2018-03-17T12:13:39.282Z,13.10
2018-03-17T12:14:39.236Z,14.30
2018-03-17T12:15:39.197Z,14.10
2018-03-17T12:16:39.150Z,13.30
2018-03-17T12:17:39.113Z,16.00
2018-03-17T12:18:39.071Z,14.10
2018-03-17T12:19:39.032Z,16.50
2018-03-17T12:20:38.989Z,14.90
2018-03-17T12:21:38.948Z,14.70
2018-03-17T12:22:38.905Z,14.10
2018-03-17T12:23:38.862Z,14.00
2018-03-17T12:24:38.820Z,13.00
2018-03-17T12:25:38.781Z,13.30
2018-03-17T12:26:38.736Z,14.30
2018-03-17T12:27:38.696Z,15.50
2018-03-17T12:28:38.654Z,16.30
2018-03-17T12:29:38.610Z,14.40
2018-03-17T12:30:38.570Z,13.50
2018-03-17T12:31:38.529Z,13.40
2018-03-17T12:32:38.490Z,14.40
2018-03-17T12:33:38.445Z,18.00
2018-03-17T12:34:38.402Z,14.20
2018-03-17T12:35:38.360Z,14.10
2018-03-17T12:36:38.337Z,14.50
2018-03-17T12:37:38.300Z,17.00
2018-03-17T12:38:38.236Z,15.00
2018-03-17T12:39:38.194Z,15.10
2018-03-17T12:40:38.150Z,13.50
2018-03-17T12:41:38.115Z,11.80
2018-03-17T12:42:38.067Z,18.60
2018-03-17T12:43:38.026Z,14.40
2018-03-17T12:44:37.985Z,12.60
2018-03-17T12:45:37.942Z,15.30
2018-03-17T12:46:37.900Z,14.80
2018-03-17T12:47:37.858Z,17.90
2018-03-17T12:48:37.817Z,16.00
2018-03-17T12:49:37.773Z,16.40
2018-03-17T12:50:37.734Z,13.30
2018-03-17T12:51:37.687Z,14.70